createdAt,value
2023-01-15T00:01:58.475Z,99045.28
2023-01-15T00:09:30.320Z,99047.69
2023-01-15T00:17:02.101Z,99026.56
2023-01-15T00:24:52.276Z,99049.28
2023-01-15T00:32:27.086Z,99054.44
2023-01-15T00:40:00.112Z,99018.84
2023-01-15T00:47:31.875Z,98993.84
2023-01-15T00:55:03.867Z,98997.91
2023-01-15T01:02:35.745Z,98988.03
2023-01-15T01:10:09.227Z,98959.84
2023-01-15T01:17:41.202Z,98966.47
2023-01-15T01:25:12.908Z,98977.09
2023-01-15T01:32:44.778Z,98981.47
2023-01-15T01:40:16.958Z,98975.19
2023-01-15T01:47:48.715Z,98946.16
2023-01-15T01:55:22.208Z,98957.91
2023-01-15T02:02:53.973Z,98968.06
2023-01-15T02:10:25.947Z,98963.38
2023-01-15T02:18:08.696Z,98950.81
2023-01-15T02:26:17.441Z,98953.56
2023-01-15T02:34:06.503Z,98958.25
2023-01-15T02:41:51.941Z,98947.63
2023-01-15T02:49:24.609Z,98940.53
2023-01-15T02:56:58.823Z,98947.63
2023-01-15T03:04:41.021Z,98942.16
2023-01-15T03:13:04.223Z,98946.03
2023-01-15T03:20:47.776Z,98941.66
2023-01-15T03:28:26.703Z,98924.44
2023-01-15T03:36:00.026Z,98922.97
2023-01-15T03:44:02.257Z,98931.53
2023-01-15T03:51:41.213Z,98938.63
2023-01-15T03:59:33.662Z,98944.09
2023-01-15T04:07:07.411Z,98933.16
2023-01-15T04:14:40.645Z,98994.19
2023-01-15T04:22:15.855Z,99031.41
2023-01-15T04:29:47.655Z,99043.16
2023-01-15T04:37:19.490Z,99064.25
2023-01-15T04:44:51.190Z,99055.56
2023-01-15T04:52:22.987Z,99094.06
2023-01-15T04:59:54.759Z,99108.09
2023-01-15T05:07:26.589Z,99095.53
2023-01-15T05:14:58.298Z,99097.47
2023-01-15T05:22:30.109Z,99091.50
2023-01-15T05:30:01.907Z,99084.91
2023-01-15T05:37:33.692Z,99085.22
2023-01-15T05:45:06.080Z,99084.06
2023-01-15T05:52:37.881Z,99106.81
2023-01-15T06:00:10.408Z,99107.13
2023-01-15T06:07:44.465Z,99092.28
2023-01-15T06:15:16.301Z,99085.22
2023-01-15T06:22:49.370Z,99077.97
2023-01-15T06:30:21.086Z,99076.19
2023-01-15T06:37:52.804Z,99104.72
2023-01-15T06:45:43.154Z,99111.00
2023-01-15T06:53:14.910Z,99092.16
2023-01-15T07:00:53.699Z,99101.50
2023-01-15T07:08:25.433Z,99123.09
2023-01-15T07:15:59.992Z,99132.41
2023-01-15T07:23:31.792Z,99124.22
2023-01-15T07:31:03.547Z,99128.09
2023-01-15T07:38:35.292Z,99141.78
2023-01-15T07:46:28.987Z,99137.44
2023-01-15T07:54:00.780Z,99148.38
2023-01-15T08:01:32.710Z,99153.88
2023-01-15T08:09:04.663Z,99154.66
2023-01-15T08:16:37.055Z,99151.47
2023-01-15T08:24:08.827Z,99138.56
2023-01-15T08:31:41.493Z,99141.78
2023-01-15T08:39:13.279Z,99148.38
2023-01-15T08:46:45.051Z,99151.47
2023-01-15T08:54:17.094Z,99163.22
2023-01-15T09:01:49.050Z,99148.72
2023-01-15T09:09:20.865Z,99166.59
2023-01-15T09:16:52.717Z,99181.91
2023-01-15T09:24:24.557Z,99181.09
2023-01-15T09:31:56.371Z,99183.03
2023-01-15T09:39:28.139Z,99186.25
2023-01-15T09:47:53.772Z,99194.44
2023-01-15T10:00:24.099Z,99202.66
2023-01-15T10:08:21.015Z,99206.22
2023-01-15T10:15:52.924Z,99178.84
2023-01-15T10:23:36.259Z,99189.47
2023-01-15T10:31:19.459Z,99194.63
2023-01-15T10:38:57.308Z,99177.38
2023-01-15T10:46:37.941Z,99183.66
2023-01-15T10:54:31.435Z,99197.84
2023-01-15T11:02:03.825Z,99185.28
2023-01-15T11:09:36.188Z,99198.63
2023-01-15T11:17:31.839Z,99213.47
2023-01-15T11:25:04.056Z,99189.13
2023-01-15T11:32:38.868Z,99199.31
2023-01-15T11:40:19.218Z,99204.91
2023-01-15T11:48:13.550Z,99189.13
2023-01-15T11:56:00.803Z,99189.94
2023-01-15T12:03:32.925Z,99186.72
2023-01-15T12:11:25.890Z,99175.78
2023-01-15T12:19:05.759Z,99171.75
2023-01-15T12:26:55.454Z,99177.19
2023-01-15T12:34:56.071Z,99179.47
2023-01-15T12:42:46.368Z,99165.59
2023-01-15T12:50:45.069Z,99156.59
2023-01-15T12:58:56.609Z,99161.06
2023-01-15T13:06:31.963Z,99153.19
2023-01-15T13:14:03.856Z,99158.94
2023-01-15T13:21:35.993Z,99155.09
2023-01-15T13:29:26.295Z,99177.47
2023-01-15T13:37:12.012Z,99159.09
2023-01-15T13:44:49.774Z,99167.00
2023-01-15T13:52:37.236Z,99162.31
2023-01-15T14:00:28.791Z,99182.31
2023-01-15T14:08:01.886Z,99185.03
2023-01-15T14:16:03.218Z,99192.09
2023-01-15T14:23:52.889Z,99219.50
2023-01-15T14:31:40.453Z,99235.94
2023-01-15T14:39:48.840Z,99234.81
2023-01-15T14:47:29.065Z,99252.38
2023-01-15T14:55:00.941Z,99269.66
2023-01-15T15:02:42.302Z,99269.66
2023-01-15T15:10:19.604Z,99276.25
2023-01-15T15:18:13.014Z,99268.84
2023-01-15T15:25:55.687Z,99275.47
2023-01-15T15:33:37.153Z,99286.44
2023-01-15T15:41:11.520Z,99289.16
2023-01-15T15:48:53.337Z,99279.78
2023-01-15T15:56:25.171Z,99271.91
2023-01-15T16:03:57.097Z,99268.84
2023-01-15T16:11:29.042Z,99267.25
2023-01-15T16:19:01.692Z,99265.63
2023-01-15T16:26:36.864Z,99263.69
2023-01-15T16:34:24.765Z,99251.59
2023-01-15T16:41:57.789Z,99254.16
2023-01-15T16:49:31.429Z,99249.34
2023-01-15T16:57:29.986Z,99264.31
2023-01-15T17:05:04.561Z,99241.91
2023-01-15T17:12:39.459Z,99250.13
2023-01-15T17:20:15.405Z,99249.00
2023-01-15T17:27:47.313Z,99257.25
2023-01-15T17:35:22.823Z,99246.28
2023-01-15T17:42:54.599Z,99258.53
2023-01-15T17:50:26.420Z,99262.53
2023-01-15T17:58:16.536Z,99273.31
2023-01-15T18:05:48.958Z,99275.09
2023-01-15T18:13:20.850Z,99275.44
2023-01-15T18:20:52.542Z,99277.84
2023-01-15T18:28:24.517Z,99280.56
2023-01-15T18:36:13.541Z,99290.41
2023-01-15T18:44:03.904Z,99278.66
2023-01-15T18:51:35.660Z,99285.28
2023-01-15T18:59:14.455Z,99290.91
2023-01-15T19:06:47.599Z,99280.75
2023-01-15T19:14:38.245Z,99285.94
2023-01-15T19:22:29.641Z,99288.00
2023-01-15T19:30:02.372Z,99291.53
2023-01-15T19:37:39.362Z,99292.38
2023-01-15T19:45:30.107Z,99293.63
2023-01-15T19:53:01.961Z,99303.13
2023-01-15T20:00:36.967Z,99300.06
2023-01-15T20:15:45.784Z,99309.56
2023-01-15T20:23:17.651Z,99310.38
2023-01-15T20:30:49.603Z,99311.03
2023-01-15T20:38:23.607Z,99309.44
2023-01-15T20:45:56.820Z,99317.16
2023-01-15T20:53:34.078Z,99316.81
2023-01-15T21:01:06.718Z,99312.50
2023-01-15T21:08:40.815Z,99314.41
2023-01-15T21:16:13.310Z,99319.91
2023-01-15T21:23:45.652Z,99332.81
2023-01-15T21:31:17.709Z,99322.19
2023-01-15T21:38:54.497Z,99313.97
2023-01-15T21:46:27.852Z,99326.03
2023-01-15T21:54:00.417Z,99327.66
2023-01-15T22:01:32.555Z,99324.91
2023-01-15T22:09:04.428Z,99322.19
2023-01-15T22:16:36.182Z,99323.75
2023-01-15T22:24:08.170Z,99315.53
2023-01-15T22:31:41.111Z,99314.41
2023-01-15T22:39:12.883Z,99324.25
2023-01-15T22:46:45.006Z,99322.31
2023-01-15T22:54:18.796Z,99325.88
2023-01-15T23:01:51.161Z,99326.66
2023-01-15T23:09:23.183Z,99321.97
2023-01-15T23:16:55.044Z,99313.28
2023-01-15T23:24:26.764Z,99311.69
2023-01-15T23:31:58.450Z,99317.16
2023-01-15T23:39:30.135Z,99321.50
2023-01-15T23:47:01.924Z,99306.19
2023-01-15T23:54:33.733Z,99316.38
